Kathy Azlin — WDH4252 — position and weather

sailwx.info

Track history (hours):
 
Tides and Currents Weather Stations Pressure Air Temp Water Temp Dewpoint Dewpoint Depression Visibility Wind Speed Wind Dir Waves Ship Positions

Kathy Azlin

Owner: Mganolia Marine Traqnsport Company, Vicksburg, MS. More information available from US FCC via Universal Licensing System and Coast Guard Vessel Documentation Center.

Last reported at 2018-Feb-23 00:30 UTC. Time now 2018-Feb-23 00:52 UTC.
Position N 38°51' W 090°07'.

Length 33 m; draft 2.8 m.

Type: Towing. MMSI: 367615770.

Date/timePositionNaut miles runAvg speedWind from/ knotsBaromVisibWave heightAir tempDewpointWater temp
2018-Feb-23 00:30N 38°51' W 090°07'1 1.6
2018-Feb-23 00:00N 38°51' W 090°06'1 1.5
2018-Feb-22 23:30N 38°50' W 090°07'1 2.5
2018-Feb-22 23:00N 38°51' W 090°07'0 0.0
2018-Feb-22 22:30N 38°51' W 090°07'0 0.0
2018-Feb-22 22:00N 38°51' W 090°07'0 0.0
2018-Feb-22 21:31N 38°51' W 090°07'0 0.0
2018-Feb-22 21:00N 38°51' W 090°07'0 0.0
2018-Feb-22 20:30N 38°51' W 090°07'0 0.0
2018-Feb-22 20:01N 38°51' W 090°07'0 0.0
2018-Feb-22 19:30N 38°51' W 090°07'0 0.2
2018-Feb-22 19:00N 38°51' W 090°07'0 0.3
2018-Feb-22 18:30N 38°51' W 090°07'0 0.1
2018-Feb-22 18:00N 38°51' W 090°07'0 0.1
2018-Feb-22 17:30N 38°51' W 090°07'0 0.1
2018-Feb-22 17:00N 38°51' W 090°07'1 1.2
2018-Feb-22 16:31N 38°51' W 090°06'0 1.0
2018-Feb-22 16:00N 38°50' W 090°06'1 2.1
2018-Feb-22 15:30N 38°51' W 090°07'0 0.1
2018-Feb-22 15:00N 38°51' W 090°07'0 0.0
2018-Feb-22 14:30N 38°51' W 090°07'0 0.0
2018-Feb-22 14:00N 38°51' W 090°07'0 0.0
2018-Feb-22 13:30N 38°51' W 090°07'0 0.0
2018-Feb-22 13:00N 38°51' W 090°07'0 0.0
2018-Feb-22 12:31N 38°51' W 090°07'0 0.0
2018-Feb-22 12:00N 38°51' W 090°07'0 0.0
2018-Feb-22 11:30N 38°51' W 090°07'0 0.0
2018-Feb-22 11:00N 38°51' W 090°07'0 0.0
2018-Feb-22 10:30N 38°51' W 090°07'0 0.0
2018-Feb-22 10:00N 38°51' W 090°07'0 0.0
2018-Feb-22 09:31N 38°51' W 090°07'0 0.0
2018-Feb-22 09:01N 38°51' W 090°07'0 0.0
2018-Feb-22 08:30N 38°51' W 090°07'0 0.0
2018-Feb-22 08:00N 38°51' W 090°07'0 0.0
2018-Feb-22 07:30N 38°51' W 090°07'0 0.1
2018-Feb-22 07:01N 38°51' W 090°07'0 0.0
2018-Feb-22 06:30N 38°51' W 090°07'1 2.6
2018-Feb-22 06:00N 38°50' W 090°07'3 5.2
2018-Feb-22 05:30N 38°47' W 090°07'4 7.1
2018-Feb-22 05:00N 38°44' W 090°09'1 0.1
2018-Feb-21 20:19N 38°43' W 090°10'0 0.0
2018-Feb-21 19:57N 38°43' W 090°10'0 0.0
2018-Feb-21 19:06N 38°43' W 090°10'0 0.0
2018-Feb-21 14:48N 38°43' W 090°10'0 0.7
2018-Feb-21 14:30N 38°43' W 090°10'2 4.7
2018-Feb-21 14:00N 38°45' W 090°09'2 4.8
2018-Feb-21 13:30N 38°47' W 090°07'3 6.0
2018-Feb-21 12:59N 38°50' W 090°06'0 0.1
2018-Feb-21 12:30N 38°50' W 090°06'0 0.0
2018-Feb-21 12:00N 38°50' W 090°06'0 0.0
2018-Feb-21 11:28N 38°50' W 090°06'0 0.0
2018-Feb-21 11:00N 38°50' W 090°06'0 0.0
2018-Feb-21 10:30N 38°50' W 090°06'0 0.0
2018-Feb-21 10:00N 38°50' W 090°06'0 0.0
2018-Feb-21 09:29N 38°50' W 090°06'0 0.0
2018-Feb-21 09:01N 38°50' W 090°06'0 0.0
2018-Feb-21 08:21N 38°50' W 090°06'0 0.0
2018-Feb-21 08:00N 38°50' W 090°06'0 0.0
2018-Feb-21 07:30N 38°50' W 090°06'0 0.0
2018-Feb-21 07:00N 38°50' W 090°06'0 0.0
2018-Feb-21 06:30N 38°50' W 090°06'0 0.0
2018-Feb-21 06:00N 38°50' W 090°06'0 0.0
2018-Feb-21 05:29N 38°50' W 090°06'0 0.0
2018-Feb-21 05:00N 38°50' W 090°06'0 0.0
2018-Feb-21 04:31N 38°50' W 090°06'0 0.0
2018-Feb-21 04:00N 38°50' W 090°06'0 0.0
2018-Feb-21 03:30N 38°50' W 090°06'0 0.0
2018-Feb-21 03:00N 38°50' W 090°06'0 0.0
2018-Feb-21 02:30N 38°50' W 090°06'0 0.0
2018-Feb-21 02:00N 38°50' W 090°06'0 0.0
2018-Feb-21 01:30N 38°50' W 090°06'0 0.0
2018-Feb-21 01:01N 38°50' W 090°06'0 0.0
2018-Feb-21 00:31N 38°50' W 090°06'0 0.0
2018-Feb-21 00:00N 38°50' W 090°06'0 0.0
2018-Feb-20 23:26N 38°50' W 090°06'0 0.0
2018-Feb-20 23:00N 38°50' W 090°06'0 0.0
2018-Feb-20 22:30N 38°50' W 090°06'1 1.8
2018-Feb-20 22:00N 38°51' W 090°07'1 1.7
2018-Feb-20 21:29N 38°50' W 090°06'0 0.0
2018-Feb-20 20:56N 38°50' W 090°06'0 0.0
2018-Feb-20 20:28N 38°50' W 090°06'0 0.0
2018-Feb-20 20:00N 38°50' W 090°06'0 0.0
2018-Feb-20 19:31N 38°50' W 090°06'0 0.0
2018-Feb-20 19:00N 38°50' W 090°06'0 0.0
2018-Feb-20 18:30N 38°50' W 090°06'0 0.0
2018-Feb-20 17:59N 38°50' W 090°06'0 0.0
2018-Feb-20 17:31N 38°50' W 090°06'0 0.0
2018-Feb-20 17:00N 38°50' W 090°06'0 0.3
2018-Feb-20 16:30N 38°51' W 090°06'1 1.6
2018-Feb-20 16:00N 38°51' W 090°07'0 0.0
2018-Feb-20 15:31N 38°51' W 090°07'0 0.0
2018-Feb-20 15:00N 38°51' W 090°07'0 0.0
2018-Feb-20 14:30N 38°51' W 090°07'0 0.0
2018-Feb-20 14:00N 38°51' W 090°07'0 0.0
2018-Feb-20 13:31N 38°51' W 090°07'0 0.0
2018-Feb-20 13:00N 38°51' W 090°07'0 0.0
2018-Feb-20 12:30N 38°51' W 090°07'0 0.0
2018-Feb-20 12:00N 38°51' W 090°07'0 0.0
2018-Feb-20 11:30N 38°51' W 090°07'0 0.0
2018-Feb-20 11:00N 38°51' W 090°07'0 0.0
2018-Feb-20 10:30N 38°51' W 090°07'0 0.0
2018-Feb-20 10:00N 38°51' W 090°07'0 0.0
2018-Feb-20 09:30N 38°51' W 090°07'0 0.0
2018-Feb-20 09:00N 38°51' W 090°07'0 0.0
2018-Feb-20 08:30N 38°51' W 090°07'0 0.0
2018-Feb-20 08:01N 38°51' W 090°07'0 0.0
2018-Feb-20 07:30N 38°51' W 090°07'0 0.0
2018-Feb-20 07:00N 38°51' W 090°07'0 0.0
2018-Feb-20 06:30N 38°51' W 090°07'0 0.0
2018-Feb-20 06:00N 38°51' W 090°07'0 0.0
2018-Feb-20 05:30N 38°51' W 090°07'0 0.0
2018-Feb-20 05:00N 38°51' W 090°07'0 0.0
2018-Feb-20 04:30N 38°51' W 090°07'0 0.0
2018-Feb-20 04:00N 38°51' W 090°07'0 0.0
2018-Feb-20 03:30N 38°51' W 090°07'0 0.0
2018-Feb-20 03:00N 38°51' W 090°07'0 0.0
2018-Feb-20 02:30N 38°51' W 090°07'0 0.0
2018-Feb-20 02:00N 38°51' W 090°07'0 0.0
2018-Feb-20 01:30N 38°51' W 090°07'0 0.0
2018-Feb-20 01:00N 38°51' W 090°07'0 0.0
2018-Feb-20 00:29N 38°51' W 090°07'0 0.0
2018-Feb-20 00:00N 38°51' W 090°07'0 0.0
2018-Feb-19 23:30N 38°51' W 090°07'0 0.0
2018-Feb-19 23:00N 38°51' W 090°07'0 0.0
2018-Feb-19 22:30N 38°51' W 090°07'0 0.2
2018-Feb-19 22:00N 38°51' W 090°07'0 0.2
2018-Feb-19 21:30N 38°51' W 090°07'0 0.0
2018-Feb-19 21:00N 38°51' W 090°07'0 0.2
2018-Feb-19 20:30N 38°51' W 090°07'0 0.0
2018-Feb-19 20:00N 38°51' W 090°07'0 0.0
2018-Feb-19 19:30N 38°51' W 090°07'0 0.0
2018-Feb-19 19:00N 38°51' W 090°07'0 0.0
2018-Feb-19 18:30N 38°51' W 090°07'0 0.1
2018-Feb-19 18:00N 38°51' W 090°07'0 0.5
2018-Feb-19 17:30N 38°51' W 090°07'0 0.5
2018-Feb-19 17:00N 38°51' W 090°07'0 0.0
2018-Feb-19 16:30N 38°51' W 090°07'0 0.0
2018-Feb-19 16:00N 38°51' W 090°07'0 0.0
2018-Feb-19 15:30N 38°51' W 090°07'0 0.0
2018-Feb-19 15:00N 38°51' W 090°07'0 0.0
2018-Feb-19 14:30N 38°51' W 090°07'0 0.4
2018-Feb-19 14:00N 38°51' W 090°07'1 1.4
2018-Feb-19 13:30N 38°50' W 090°06'1 1.7
2018-Feb-19 13:00N 38°51' W 090°07'1 1.3
2018-Feb-19 12:28N 38°51' W 090°06'0 0.2
2018-Feb-19 12:00N 38°51' W 090°06'1 1.6
2018-Feb-19 11:30N 38°51' W 090°07'0 0.0
2018-Feb-19 11:00N 38°51' W 090°07'0 0.0
2018-Feb-19 10:30N 38°51' W 090°07'0 0.0
2018-Feb-19 10:00N 38°51' W 090°07'0 0.0
2018-Feb-19 09:31N 38°51' W 090°07'0 0.0
2018-Feb-19 09:00N 38°51' W 090°07'0 0.0
2018-Feb-19 08:30N 38°51' W 090°07'0 0.0
2018-Feb-19 08:00N 38°51' W 090°07'0 0.0
2018-Feb-19 07:30N 38°51' W 090°07'0 0.0
2018-Feb-19 07:00N 38°51' W 090°07'0 0.0
2018-Feb-19 06:30N 38°51' W 090°07'0 0.0
2018-Feb-19 06:00N 38°51' W 090°07'0 0.0
2018-Feb-19 05:30N 38°51' W 090°07'0 0.0
2018-Feb-19 05:01N 38°51' W 090°07'0 0.0
2018-Feb-19 04:31N 38°51' W 090°07'0 0.0
2018-Feb-19 04:00N 38°51' W 090°07'0 0.0
2018-Feb-19 03:31N 38°51' W 090°07'0 0.0
2018-Feb-19 03:01N 38°51' W 090°07'0 0.0
2018-Feb-19 02:30N 38°51' W 090°07'0 0.0
2018-Feb-19 02:00N 38°51' W 090°07'0 0.0
2018-Feb-19 01:30N 38°51' W 090°07'0 0.0
2018-Feb-19 01:00N 38°51' W 090°07'0 0.0
2018-Feb-19 00:30N 38°51' W 090°07'0 0.0
2018-Feb-19 00:01N 38°51' W 090°07'0 0.0
2018-Feb-18 23:30N 38°51' W 090°07'0 0.0
2018-Feb-18 23:00N 38°51' W 090°07'0 0.0
2018-Feb-18 22:30N 38°51' W 090°07'0 0.0
2018-Feb-18 22:00N 38°51' W 090°07'0 0.1
2018-Feb-18 21:30N 38°51' W 090°07'0 0.1
2018-Feb-18 21:00N 38°51' W 090°07'0 0.1
2018-Feb-18 20:30N 38°51' W 090°07'0 0.5
2018-Feb-18 20:00N 38°51' W 090°07'0 0.4
2018-Feb-18 19:30N 38°51' W 090°07'0 0.0
2018-Feb-18 19:00N 38°51' W 090°07'0 0.1
2018-Feb-18 18:30N 38°51' W 090°07'2 4.1
2018-Feb-18 18:00N 38°49' W 090°07'4 7.5
2018-Feb-18 17:30N 38°46' W 090°08'3 0.3
2018-Feb-18 06:07N 38°43' W 090°10'0 0.0
2018-Feb-18 06:00N 38°43' W 090°10'0 0.2
2018-Feb-18 05:30N 38°43' W 090°10'1 1.3
2018-Feb-18 05:00N 38°44' W 090°10'2 3.4
2018-Feb-18 04:30N 38°45' W 090°09'2 4.1
2018-Feb-18 04:00N 38°47' W 090°08'3 6.1
2018-Feb-18 03:30N 38°50' W 090°07'1 1.4
2018-Feb-18 03:00N 38°50' W 090°06'0 0.2
2018-Feb-18 02:30N 38°50' W 090°06'0 0.0
2018-Feb-18 02:00N 38°50' W 090°06'0 0.0
2018-Feb-18 01:30N 38°50' W 090°06'0 0.0
2018-Feb-18 01:00N 38°50' W 090°06'0 0.0
2018-Feb-18 00:28N 38°50' W 090°06'0 0.0
2018-Feb-18 00:00N 38°50' W 090°06'0 0.0
2018-Feb-17 23:30N 38°50' W 090°06'0 0.0
2018-Feb-17 22:56N 38°50' W 090°06'0 0.0
2018-Feb-17 22:30N 38°50' W 090°06'0 0.0
2018-Feb-17 22:00N 38°50' W 090°06'0 0.0
2018-Feb-17 21:30N 38°50' W 090°06'0 0.0
2018-Feb-17 20:59N 38°50' W 090°06'0 0.0
2018-Feb-17 20:30N 38°50' W 090°06'0 0.0
2018-Feb-17 20:00N 38°50' W 090°06'0 0.0
2018-Feb-17 19:29N 38°50' W 090°06'0 0.0
2018-Feb-17 19:00N 38°50' W 090°06'0 0.0
2018-Feb-17 18:27N 38°50' W 090°06'0 0.0
2018-Feb-17 17:59N 38°50' W 090°06'0 0.0
2018-Feb-17 17:30N 38°50' W 090°06'0 0.0
2018-Feb-17 17:00N 38°50' W 090°06'0 0.0
2018-Feb-17 16:30N 38°50' W 090°06'0 0.0
2018-Feb-17 15:58N 38°50' W 090°06'0 0.8
2018-Feb-17 15:30N 38°50' W 090°06'0 0.0
2018-Feb-17 15:00N 38°50' W 090°06'0 0.1
2018-Feb-17 14:29N 38°50' W 090°06'0 0.8
2018-Feb-17 13:58N 38°50' W 090°06'0 0.0
2018-Feb-17 13:30N 38°50' W 090°06'0 0.0
2018-Feb-17 13:00N 38°50' W 090°06'0 0.0
2018-Feb-17 12:28N 38°50' W 090°06'0 0.0
2018-Feb-17 12:00N 38°50' W 090°06'0 0.0
2018-Feb-17 11:30N 38°50' W 090°06'0 0.0
2018-Feb-17 11:00N 38°50' W 090°06'0 0.0
2018-Feb-17 10:30N 38°50' W 090°06'0 0.0
2018-Feb-17 10:00N 38°50' W 090°06'0 0.0
2018-Feb-17 09:30N 38°50' W 090°06'0 0.0
2018-Feb-17 08:57N 38°50' W 090°06'0 0.0
2018-Feb-17 08:29N 38°50' W 090°06'0 0.0
2018-Feb-17 07:58N 38°50' W 090°06'0 0.0
2018-Feb-17 07:30N 38°50' W 090°06'0 0.0
2018-Feb-17 06:59N 38°50' W 090°06'0 0.0
2018-Feb-17 06:29N 38°50' W 090°06'0 0.0
2018-Feb-17 06:00N 38°50' W 090°06'0 0.0
2018-Feb-17 05:29N 38°50' W 090°06'0 0.0
2018-Feb-17 04:59N 38°50' W 090°06'0 0.0
2018-Feb-17 04:30N 38°50' W 090°06'0 0.0
2018-Feb-17 04:00N 38°50' W 090°06'0 0.0
2018-Feb-17 03:30N 38°50' W 090°06'0 0.0
2018-Feb-17 03:00N 38°50' W 090°06'0 0.0
2018-Feb-17 02:30N 38°50' W 090°06'0 0.0
2018-Feb-17 02:00N 38°50' W 090°06'0 0.0
2018-Feb-17 01:30N 38°50' W 090°06'0 0.0
2018-Feb-17 01:00N 38°50' W 090°06'0 0.0
2018-Feb-17 00:30N 38°50' W 090°06'0 0.0
2018-Feb-17 00:00N 38°50' W 090°06'0 0.0
2018-Feb-16 23:30N 38°50' W 090°06'0 0.0
2018-Feb-16 23:00N 38°50' W 090°06'0 0.0
2018-Feb-16 22:28N 38°50' W 090°06'0 0.0
2018-Feb-16 22:00N 38°50' W 090°06'0 0.0
2018-Feb-16 21:29N 38°50' W 090°06'0 0.0
2018-Feb-16 21:00N 38°50' W 090°06'0 0.0
2018-Feb-16 20:30N 38°50' W 090°06'0 0.0
2018-Feb-16 20:00N 38°50' W 090°06'0 0.0
2018-Feb-16 19:30N 38°50' W 090°06'0 0.0
2018-Feb-16 18:59N 38°50' W 090°06'0 0.0
2018-Feb-16 18:01N 38°50' W 090°06'0 0.0
2018-Feb-16 18:00N 38°50' W 090°06'1 1.7
2018-Feb-16 17:29N 38°51' W 090°07'1 1.2
2018-Feb-16 17:00N 38°51' W 090°06'0 0.6
2018-Feb-16 16:28N 38°50' W 090°06'0 0.3
2018-Feb-16 16:00N 38°51' W 090°06'0 0.2
2018-Feb-16 15:30N 38°50' W 090°06'0 0.0
2018-Feb-16 14:58N 38°50' W 090°06'0 0.0
2018-Feb-16 14:29N 38°50' W 090°06'0 0.0
2018-Feb-16 14:00N 38°50' W 090°06'0 0.0
2018-Feb-16 13:29N 38°50' W 090°06'0 0.1
2018-Feb-16 13:01N 38°50' W 090°06'0 1.0
2018-Feb-16 12:30N 38°51' W 090°07'1 1.1
2018-Feb-16 12:00N 38°50' W 090°06'0 0.0
2018-Feb-16 11:27N 38°50' W 090°06'0 0.3
2018-Feb-16 11:00N 38°51' W 090°06'0 0.8
2018-Feb-16 10:31N 38°51' W 090°07'3 6.5
2018-Feb-16 10:00N 38°48' W 090°07'3 6.9
2018-Feb-16 09:30N 38°45' W 090°09'3 5.3
2018-Feb-16 08:59N 38°42' W 090°11'0 1.0
2018-Feb-16 08:30N 38°42' W 090°11'1 1.9
2018-Feb-16 08:00N 38°41' W 090°11'2 1.3
2018-Feb-16 06:18N 38°39' W 090°11'0 0.0
2018-Feb-14 05:52N 38°39' W 090°11'0 0.0
2018-Feb-14 05:23N 38°39' W 090°11'0 0.0
2018-Feb-14 00:01N 38°38' W 090°11'0 2.1
2018-Feb-13 23:57N 38°39' W 090°11'3 5.7
2018-Feb-13 23:26N 38°41' W 090°11'1 1.7
2018-Feb-13 23:00N 38°42' W 090°11'0 0.5
2018-Feb-13 22:30N 38°42' W 090°11'1 1.8
2018-Feb-13 21:58N 38°43' W 090°10'1 2.0
2018-Feb-13 21:30N 38°44' W 090°10'1 3.0
2018-Feb-13 21:00N 38°45' W 090°09'3 5.1
2018-Feb-13 20:22N 38°48' W 090°07'2 5.2
2018-Feb-13 19:57N 38°50' W 090°06'0 0.1
2018-Feb-13 19:08N 38°50' W 090°06'0 0.0
2018-Feb-13 19:00N 38°50' W 090°06'0 0.0
2018-Feb-13 18:25N 38°50' W 090°06'0 0.0
2018-Feb-13 17:57N 38°50' W 090°06'0 0.0
2018-Feb-13 17:30N 38°50' W 090°06'0 0.0
2018-Feb-13 17:00N 38°50' W 090°06'0 0.0
2018-Feb-13 16:29N 38°50' W 090°06'0 0.0
2018-Feb-13 15:58N 38°50' W 090°06'0 0.0
2018-Feb-13 15:30N 38°50' W 090°06'0 0.0
2018-Feb-13 14:58N 38°50' W 090°06'0 0.0
2018-Feb-13 14:30N 38°50' W 090°06'0 0.0
2018-Feb-13 13:59N 38°50' W 090°06'0 0.0
2018-Feb-13 13:30N 38°50' W 090°06'0 0.0
2018-Feb-13 13:00N 38°50' W 090°06'0 0.0
2018-Feb-13 12:28N 38°50' W 090°06'0 0.0
2018-Feb-13 12:00N 38°50' W 090°06'0 0.0
2018-Feb-13 11:30N 38°50' W 090°06'0 0.0
2018-Feb-13 10:54N 38°50' W 090°06'0 0.0
2018-Feb-13 10:28N 38°50' W 090°06'0 0.0
2018-Feb-13 10:00N 38°50' W 090°06'0 0.0
2018-Feb-13 09:30N 38°50' W 090°06'0 0.0
2018-Feb-13 08:59N 38°50' W 090°06'0 0.0
2018-Feb-13 08:30N 38°50' W 090°06'0 0.0
2018-Feb-13 07:58N 38°50' W 090°06'0 0.0
2018-Feb-13 07:27N 38°50' W 090°06'0 0.0
2018-Feb-13 07:00N 38°50' W 090°06'0 0.0
2018-Feb-13 06:30N 38°50' W 090°06'0 0.0
2018-Feb-13 05:59N 38°50' W 090°06'0 0.0
2018-Feb-13 05:30N 38°50' W 090°06'0 0.0
2018-Feb-13 05:00N 38°50' W 090°06'0 0.0
2018-Feb-13 04:21N 38°50' W 090°06'0 0.0
2018-Feb-13 03:59N 38°50' W 090°06'0 0.0
2018-Feb-13 03:29N 38°50' W 090°06'0 0.0
2018-Feb-13 03:00N 38°50' W 090°06'0 0.0
2018-Feb-13 02:29N 38°50' W 090°06'0 0.0
2018-Feb-13 02:00N 38°50' W 090°06'0 0.0
2018-Feb-13 01:29N 38°50' W 090°06'0 0.0
2018-Feb-13 01:00N 38°50' W 090°06'  
Track history (hours):
 
Tides and Currents Weather Stations Pressure Air Temp Water Temp Dewpoint Dewpoint Depression Visibility Wind Speed Wind Dir Waves Ship Positions

Kathy Azlin

Owner: Mganolia Marine Traqnsport Company, Vicksburg, MS. More information available from US FCC via Universal Licensing System and Coast Guard Vessel Documentation Center.

Last reported at 2018-Feb-23 00:30 UTC. Time now 2018-Feb-23 00:52 UTC.
Position N 38°51' W 090°07'.

Length 33 m; draft 2.8 m.

Type: Towing. MMSI: 367615770.

Date/timePositionNaut miles runAvg speedWind from/ knotsBaromVisibWave heightAir tempDewpointWater temp
2018-Feb-23 00:30N 38°51' W 090°07'1 1.6
2018-Feb-23 00:00N 38°51' W 090°06'1 1.5
2018-Feb-22 23:30N 38°50' W 090°07'1 2.5
2018-Feb-22 23:00N 38°51' W 090°07'0 0.0
2018-Feb-22 22:30N 38°51' W 090°07'0 0.0
2018-Feb-22 22:00N 38°51' W 090°07'0 0.0
2018-Feb-22 21:31N 38°51' W 090°07'0 0.0
2018-Feb-22 21:00N 38°51' W 090°07'0 0.0
2018-Feb-22 20:30N 38°51' W 090°07'0 0.0
2018-Feb-22 20:01N 38°51' W 090°07'0 0.0
2018-Feb-22 19:30N 38°51' W 090°07'0 0.2
2018-Feb-22 19:00N 38°51' W 090°07'0 0.3
2018-Feb-22 18:30N 38°51' W 090°07'0 0.1
2018-Feb-22 18:00N 38°51' W 090°07'0 0.1
2018-Feb-22 17:30N 38°51' W 090°07'0 0.1
2018-Feb-22 17:00N 38°51' W 090°07'1 1.2
2018-Feb-22 16:31N 38°51' W 090°06'0 1.0
2018-Feb-22 16:00N 38°50' W 090°06'1 2.1
2018-Feb-22 15:30N 38°51' W 090°07'0 0.1
2018-Feb-22 15:00N 38°51' W 090°07'0 0.0
2018-Feb-22 14:30N 38°51' W 090°07'0 0.0
2018-Feb-22 14:00N 38°51' W 090°07'0 0.0
2018-Feb-22 13:30N 38°51' W 090°07'0 0.0
2018-Feb-22 13:00N 38°51' W 090°07'0 0.0
2018-Feb-22 12:31N 38°51' W 090°07'0 0.0
2018-Feb-22 12:00N 38°51' W 090°07'0 0.0
2018-Feb-22 11:30N 38°51' W 090°07'0 0.0
2018-Feb-22 11:00N 38°51' W 090°07'0 0.0
2018-Feb-22 10:30N 38°51' W 090°07'0 0.0
2018-Feb-22 10:00N 38°51' W 090°07'0 0.0
2018-Feb-22 09:31N 38°51' W 090°07'0 0.0
2018-Feb-22 09:01N 38°51' W 090°07'0 0.0
2018-Feb-22 08:30N 38°51' W 090°07'0 0.0
2018-Feb-22 08:00N 38°51' W 090°07'0 0.0
2018-Feb-22 07:30N 38°51' W 090°07'0 0.1
2018-Feb-22 07:01N 38°51' W 090°07'0 0.0
2018-Feb-22 06:30N 38°51' W 090°07'1 2.6
2018-Feb-22 06:00N 38°50' W 090°07'3 5.2
2018-Feb-22 05:30N 38°47' W 090°07'4 7.1
2018-Feb-22 05:00N 38°44' W 090°09'1 0.1
2018-Feb-21 20:19N 38°43' W 090°10'0 0.0
2018-Feb-21 19:57N 38°43' W 090°10'0 0.0
2018-Feb-21 19:06N 38°43' W 090°10'0 0.0
2018-Feb-21 14:48N 38°43' W 090°10'0 0.7
2018-Feb-21 14:30N 38°43' W 090°10'2 4.7
2018-Feb-21 14:00N 38°45' W 090°09'2 4.8
2018-Feb-21 13:30N 38°47' W 090°07'3 6.0
2018-Feb-21 12:59N 38°50' W 090°06'0 0.1
2018-Feb-21 12:30N 38°50' W 090°06'0 0.0
2018-Feb-21 12:00N 38°50' W 090°06'0 0.0
2018-Feb-21 11:28N 38°50' W 090°06'0 0.0
2018-Feb-21 11:00N 38°50' W 090°06'0 0.0
2018-Feb-21 10:30N 38°50' W 090°06'0 0.0
2018-Feb-21 10:00N 38°50' W 090°06'0 0.0
2018-Feb-21 09:29N 38°50' W 090°06'0 0.0
2018-Feb-21 09:01N 38°50' W 090°06'0 0.0
2018-Feb-21 08:21N 38°50' W 090°06'0 0.0
2018-Feb-21 08:00N 38°50' W 090°06'0 0.0
2018-Feb-21 07:30N 38°50' W 090°06'0 0.0
2018-Feb-21 07:00N 38°50' W 090°06'0 0.0
2018-Feb-21 06:30N 38°50' W 090°06'0 0.0
2018-Feb-21 06:00N 38°50' W 090°06'0 0.0
2018-Feb-21 05:29N 38°50' W 090°06'0 0.0
2018-Feb-21 05:00N 38°50' W 090°06'0 0.0
2018-Feb-21 04:31N 38°50' W 090°06'0 0.0
2018-Feb-21 04:00N 38°50' W 090°06'0 0.0
2018-Feb-21 03:30N 38°50' W 090°06'0 0.0
2018-Feb-21 03:00N 38°50' W 090°06'0 0.0
2018-Feb-21 02:30N 38°50' W 090°06'0 0.0
2018-Feb-21 02:00N 38°50' W 090°06'0 0.0
2018-Feb-21 01:30N 38°50' W 090°06'0 0.0
2018-Feb-21 01:01N 38°50' W 090°06'0 0.0
2018-Feb-21 00:31N 38°50' W 090°06'0 0.0
2018-Feb-21 00:00N 38°50' W 090°06'0 0.0
2018-Feb-20 23:26N 38°50' W 090°06'0 0.0
2018-Feb-20 23:00N 38°50' W 090°06'0 0.0
2018-Feb-20 22:30N 38°50' W 090°06'1 1.8
2018-Feb-20 22:00N 38°51' W 090°07'1 1.7
2018-Feb-20 21:29N 38°50' W 090°06'0 0.0
2018-Feb-20 20:56N 38°50' W 090°06'0 0.0
2018-Feb-20 20:28N 38°50' W 090°06'0 0.0
2018-Feb-20 20:00N 38°50' W 090°06'0 0.0
2018-Feb-20 19:31N 38°50' W 090°06'0 0.0
2018-Feb-20 19:00N 38°50' W 090°06'0 0.0
2018-Feb-20 18:30N 38°50' W 090°06'0 0.0
2018-Feb-20 17:59N 38°50' W 090°06'0 0.0
2018-Feb-20 17:31N 38°50' W 090°06'0 0.0
2018-Feb-20 17:00N 38°50' W 090°06'0 0.3
2018-Feb-20 16:30N 38°51' W 090°06'1 1.6
2018-Feb-20 16:00N 38°51' W 090°07'0 0.0
2018-Feb-20 15:31N 38°51' W 090°07'0 0.0
2018-Feb-20 15:00N 38°51' W 090°07'0 0.0
2018-Feb-20 14:30N 38°51' W 090°07'0 0.0
2018-Feb-20 14:00N 38°51' W 090°07'0 0.0
2018-Feb-20 13:31N 38°51' W 090°07'0 0.0
2018-Feb-20 13:00N 38°51' W 090°07'0 0.0
2018-Feb-20 12:30N 38°51' W 090°07'0 0.0
2018-Feb-20 12:00N 38°51' W 090°07'0 0.0
2018-Feb-20 11:30N 38°51' W 090°07'0 0.0
2018-Feb-20 11:00N 38°51' W 090°07'0 0.0
2018-Feb-20 10:30N 38°51' W 090°07'0 0.0
2018-Feb-20 10:00N 38°51' W 090°07'0 0.0
2018-Feb-20 09:30N 38°51' W 090°07'0 0.0
2018-Feb-20 09:00N 38°51' W 090°07'0 0.0
2018-Feb-20 08:30N 38°51' W 090°07'0 0.0
2018-Feb-20 08:01N 38°51' W 090°07'0 0.0
2018-Feb-20 07:30N 38°51' W 090°07'0 0.0
2018-Feb-20 07:00N 38°51' W 090°07'0 0.0
2018-Feb-20 06:30N 38°51' W 090°07'0 0.0
2018-Feb-20 06:00N 38°51' W 090°07'0 0.0
2018-Feb-20 05:30N 38°51' W 090°07'0 0.0
2018-Feb-20 05:00N 38°51' W 090°07'0 0.0
2018-Feb-20 04:30N 38°51' W 090°07'0 0.0
2018-Feb-20 04:00N 38°51' W 090°07'0 0.0
2018-Feb-20 03:30N 38°51' W 090°07'0 0.0
2018-Feb-20 03:00N 38°51' W 090°07'0 0.0
2018-Feb-20 02:30N 38°51' W 090°07'0 0.0
2018-Feb-20 02:00N 38°51' W 090°07'0 0.0
2018-Feb-20 01:30N 38°51' W 090°07'0 0.0
2018-Feb-20 01:00N 38°51' W 090°07'0 0.0
2018-Feb-20 00:29N 38°51' W 090°07'0 0.0
2018-Feb-20 00:00N 38°51' W 090°07'0 0.0
2018-Feb-19 23:30N 38°51' W 090°07'0 0.0
2018-Feb-19 23:00N 38°51' W 090°07'0 0.0
2018-Feb-19 22:30N 38°51' W 090°07'0 0.2
2018-Feb-19 22:00N 38°51' W 090°07'0 0.2
2018-Feb-19 21:30N 38°51' W 090°07'0 0.0
2018-Feb-19 21:00N 38°51' W 090°07'0 0.2
2018-Feb-19 20:30N 38°51' W 090°07'0 0.0
2018-Feb-19 20:00N 38°51' W 090°07'0 0.0
2018-Feb-19 19:30N 38°51' W 090°07'0 0.0
2018-Feb-19 19:00N 38°51' W 090°07'0 0.0
2018-Feb-19 18:30N 38°51' W 090°07'0 0.1
2018-Feb-19 18:00N 38°51' W 090°07'0 0.5
2018-Feb-19 17:30N 38°51' W 090°07'0 0.5
2018-Feb-19 17:00N 38°51' W 090°07'0 0.0
2018-Feb-19 16:30N 38°51' W 090°07'0 0.0
2018-Feb-19 16:00N 38°51' W 090°07'0 0.0
2018-Feb-19 15:30N 38°51' W 090°07'0 0.0
2018-Feb-19 15:00N 38°51' W 090°07'0 0.0
2018-Feb-19 14:30N 38°51' W 090°07'0 0.4
2018-Feb-19 14:00N 38°51' W 090°07'1 1.4
2018-Feb-19 13:30N 38°50' W 090°06'1 1.7
2018-Feb-19 13:00N 38°51' W 090°07'1 1.3
2018-Feb-19 12:28N 38°51' W 090°06'0 0.2
2018-Feb-19 12:00N 38°51' W 090°06'1 1.6
2018-Feb-19 11:30N 38°51' W 090°07'0 0.0
2018-Feb-19 11:00N 38°51' W 090°07'0 0.0
2018-Feb-19 10:30N 38°51' W 090°07'0 0.0
2018-Feb-19 10:00N 38°51' W 090°07'0 0.0
2018-Feb-19 09:31N 38°51' W 090°07'0 0.0
2018-Feb-19 09:00N 38°51' W 090°07'0 0.0
2018-Feb-19 08:30N 38°51' W 090°07'0 0.0
2018-Feb-19 08:00N 38°51' W 090°07'0 0.0
2018-Feb-19 07:30N 38°51' W 090°07'0 0.0
2018-Feb-19 07:00N 38°51' W 090°07'0 0.0
2018-Feb-19 06:30N 38°51' W 090°07'0 0.0
2018-Feb-19 06:00N 38°51' W 090°07'0 0.0
2018-Feb-19 05:30N 38°51' W 090°07'0 0.0
2018-Feb-19 05:01N 38°51' W 090°07'0 0.0
2018-Feb-19 04:31N 38°51' W 090°07'0 0.0
2018-Feb-19 04:00N 38°51' W 090°07'0 0.0
2018-Feb-19 03:31N 38°51' W 090°07'0 0.0
2018-Feb-19 03:01N 38°51' W 090°07'0 0.0
2018-Feb-19 02:30N 38°51' W 090°07'0 0.0
2018-Feb-19 02:00N 38°51' W 090°07'0 0.0
2018-Feb-19 01:30N 38°51' W 090°07'0 0.0
2018-Feb-19 01:00N 38°51' W 090°07'0 0.0
2018-Feb-19 00:30N 38°51' W 090°07'0 0.0
2018-Feb-19 00:01N 38°51' W 090°07'0 0.0
2018-Feb-18 23:30N 38°51' W 090°07'0 0.0
2018-Feb-18 23:00N 38°51' W 090°07'0 0.0
2018-Feb-18 22:30N 38°51' W 090°07'0 0.0
2018-Feb-18 22:00N 38°51' W 090°07'0 0.1
2018-Feb-18 21:30N 38°51' W 090°07'0 0.1
2018-Feb-18 21:00N 38°51' W 090°07'0 0.1
2018-Feb-18 20:30N 38°51' W 090°07'0 0.5
2018-Feb-18 20:00N 38°51' W 090°07'0 0.4
2018-Feb-18 19:30N 38°51' W 090°07'0 0.0
2018-Feb-18 19:00N 38°51' W 090°07'0 0.1
2018-Feb-18 18:30N 38°51' W 090°07'2 4.1
2018-Feb-18 18:00N 38°49' W 090°07'4 7.5
2018-Feb-18 17:30N 38°46' W 090°08'3 0.3
2018-Feb-18 06:07N 38°43' W 090°10'0 0.0
2018-Feb-18 06:00N 38°43' W 090°10'0 0.2
2018-Feb-18 05:30N 38°43' W 090°10'1 1.3
2018-Feb-18 05:00N 38°44' W 090°10'2 3.4
2018-Feb-18 04:30N 38°45' W 090°09'2 4.1
2018-Feb-18 04:00N 38°47' W 090°08'3 6.1
2018-Feb-18 03:30N 38°50' W 090°07'1 1.4
2018-Feb-18 03:00N 38°50' W 090°06'0 0.2
2018-Feb-18 02:30N 38°50' W 090°06'0 0.0
2018-Feb-18 02:00N 38°50' W 090°06'0 0.0
2018-Feb-18 01:30N 38°50' W 090°06'0 0.0
2018-Feb-18 01:00N 38°50' W 090°06'0 0.0
2018-Feb-18 00:28N 38°50' W 090°06'0 0.0
2018-Feb-18 00:00N 38°50' W 090°06'0 0.0
2018-Feb-17 23:30N 38°50' W 090°06'0 0.0
2018-Feb-17 22:56N 38°50' W 090°06'0 0.0
2018-Feb-17 22:30N 38°50' W 090°06'0 0.0
2018-Feb-17 22:00N 38°50' W 090°06'0 0.0
2018-Feb-17 21:30N 38°50' W 090°06'0 0.0
2018-Feb-17 20:59N 38°50' W 090°06'0 0.0
2018-Feb-17 20:30N 38°50' W 090°06'0 0.0
2018-Feb-17 20:00N 38°50' W 090°06'0 0.0
2018-Feb-17 19:29N 38°50' W 090°06'0 0.0
2018-Feb-17 19:00N 38°50' W 090°06'0 0.0
2018-Feb-17 18:27N 38°50' W 090°06'0 0.0
2018-Feb-17 17:59N 38°50' W 090°06'0 0.0
2018-Feb-17 17:30N 38°50' W 090°06'0 0.0
2018-Feb-17 17:00N 38°50' W 090°06'0 0.0
2018-Feb-17 16:30N 38°50' W 090°06'0 0.0
2018-Feb-17 15:58N 38°50' W 090°06'0 0.8
2018-Feb-17 15:30N 38°50' W 090°06'0 0.0
2018-Feb-17 15:00N 38°50' W 090°06'0 0.1
2018-Feb-17 14:29N 38°50' W 090°06'0 0.8
2018-Feb-17 13:58N 38°50' W 090°06'0 0.0
2018-Feb-17 13:30N 38°50' W 090°06'0 0.0
2018-Feb-17 13:00N 38°50' W 090°06'0 0.0
2018-Feb-17 12:28N 38°50' W 090°06'0 0.0
2018-Feb-17 12:00N 38°50' W 090°06'0 0.0
2018-Feb-17 11:30N 38°50' W 090°06'0 0.0
2018-Feb-17 11:00N 38°50' W 090°06'0 0.0
2018-Feb-17 10:30N 38°50' W 090°06'0 0.0
2018-Feb-17 10:00N 38°50' W 090°06'0 0.0
2018-Feb-17 09:30N 38°50' W 090°06'0 0.0
2018-Feb-17 08:57N 38°50' W 090°06'0 0.0
2018-Feb-17 08:29N 38°50' W 090°06'0 0.0
2018-Feb-17 07:58N 38°50' W 090°06'0 0.0
2018-Feb-17 07:30N 38°50' W 090°06'0 0.0
2018-Feb-17 06:59N 38°50' W 090°06'0 0.0
2018-Feb-17 06:29N 38°50' W 090°06'0 0.0
2018-Feb-17 06:00N 38°50' W 090°06'0 0.0
2018-Feb-17 05:29N 38°50' W 090°06'0 0.0
2018-Feb-17 04:59N 38°50' W 090°06'0 0.0
2018-Feb-17 04:30N 38°50' W 090°06'0 0.0
2018-Feb-17 04:00N 38°50' W 090°06'0 0.0
2018-Feb-17 03:30N 38°50' W 090°06'0 0.0
2018-Feb-17 03:00N 38°50' W 090°06'0 0.0
2018-Feb-17 02:30N 38°50' W 090°06'0 0.0
2018-Feb-17 02:00N 38°50' W 090°06'0 0.0
2018-Feb-17 01:30N 38°50' W 090°06'0 0.0
2018-Feb-17 01:00N 38°50' W 090°06'0 0.0
2018-Feb-17 00:30N 38°50' W 090°06'0 0.0
2018-Feb-17 00:00N 38°50' W 090°06'0 0.0
2018-Feb-16 23:30N 38°50' W 090°06'0 0.0
2018-Feb-16 23:00N 38°50' W 090°06'0 0.0
2018-Feb-16 22:28N 38°50' W 090°06'0 0.0
2018-Feb-16 22:00N 38°50' W 090°06'0 0.0
2018-Feb-16 21:29N 38°50' W 090°06'0 0.0
2018-Feb-16 21:00N 38°50' W 090°06'0 0.0
2018-Feb-16 20:30N 38°50' W 090°06'0 0.0
2018-Feb-16 20:00N 38°50' W 090°06'0 0.0
2018-Feb-16 19:30N 38°50' W 090°06'0 0.0
2018-Feb-16 18:59N 38°50' W 090°06'0 0.0
2018-Feb-16 18:01N 38°50' W 090°06'0 0.0
2018-Feb-16 18:00N 38°50' W 090°06'1 1.7
2018-Feb-16 17:29N 38°51' W 090°07'1 1.2
2018-Feb-16 17:00N 38°51' W 090°06'0 0.6
2018-Feb-16 16:28N 38°50' W 090°06'0 0.3
2018-Feb-16 16:00N 38°51' W 090°06'0 0.2
2018-Feb-16 15:30N 38°50' W 090°06'0 0.0
2018-Feb-16 14:58N 38°50' W 090°06'0 0.0
2018-Feb-16 14:29N 38°50' W 090°06'0 0.0
2018-Feb-16 14:00N 38°50' W 090°06'0 0.0
2018-Feb-16 13:29N 38°50' W 090°06'0 0.1
2018-Feb-16 13:01N 38°50' W 090°06'0 1.0
2018-Feb-16 12:30N 38°51' W 090°07'1 1.1
2018-Feb-16 12:00N 38°50' W 090°06'0 0.0
2018-Feb-16 11:27N 38°50' W 090°06'0 0.3
2018-Feb-16 11:00N 38°51' W 090°06'0 0.8
2018-Feb-16 10:31N 38°51' W 090°07'3 6.5
2018-Feb-16 10:00N 38°48' W 090°07'3 6.9
2018-Feb-16 09:30N 38°45' W 090°09'3 5.3
2018-Feb-16 08:59N 38°42' W 090°11'0 1.0
2018-Feb-16 08:30N 38°42' W 090°11'1 1.9
2018-Feb-16 08:00N 38°41' W 090°11'2 1.3
2018-Feb-16 06:18N 38°39' W 090°11'0 0.0
2018-Feb-14 05:52N 38°39' W 090°11'0 0.0
2018-Feb-14 05:23N 38°39' W 090°11'0 0.0
2018-Feb-14 00:01N 38°38' W 090°11'0 2.1
2018-Feb-13 23:57N 38°39' W 090°11'3 5.7
2018-Feb-13 23:26N 38°41' W 090°11'1 1.7
2018-Feb-13 23:00N 38°42' W 090°11'0 0.5
2018-Feb-13 22:30N 38°42' W 090°11'1 1.8
2018-Feb-13 21:58N 38°43' W 090°10'1 2.0
2018-Feb-13 21:30N 38°44' W 090°10'1 3.0
2018-Feb-13 21:00N 38°45' W 090°09'3 5.1
2018-Feb-13 20:22N 38°48' W 090°07'2 5.2
2018-Feb-13 19:57N 38°50' W 090°06'0 0.1
2018-Feb-13 19:08N 38°50' W 090°06'0 0.0
2018-Feb-13 19:00N 38°50' W 090°06'0 0.0
2018-Feb-13 18:25N 38°50' W 090°06'0 0.0
2018-Feb-13 17:57N 38°50' W 090°06'0 0.0
2018-Feb-13 17:30N 38°50' W 090°06'0 0.0
2018-Feb-13 17:00N 38°50' W 090°06'0 0.0
2018-Feb-13 16:29N 38°50' W 090°06'0 0.0
2018-Feb-13 15:58N 38°50' W 090°06'0 0.0
2018-Feb-13 15:30N 38°50' W 090°06'0 0.0
2018-Feb-13 14:58N 38°50' W 090°06'0 0.0
2018-Feb-13 14:30N 38°50' W 090°06'0 0.0
2018-Feb-13 13:59N 38°50' W 090°06'0 0.0
2018-Feb-13 13:30N 38°50' W 090°06'0 0.0
2018-Feb-13 13:00N 38°50' W 090°06'0 0.0
2018-Feb-13 12:28N 38°50' W 090°06'0 0.0
2018-Feb-13 12:00N 38°50' W 090°06'0 0.0
2018-Feb-13 11:30N 38°50' W 090°06'0 0.0
2018-Feb-13 10:54N 38°50' W 090°06'0 0.0
2018-Feb-13 10:28N 38°50' W 090°06'0 0.0
2018-Feb-13 10:00N 38°50' W 090°06'0 0.0
2018-Feb-13 09:30N 38°50' W 090°06'0 0.0
2018-Feb-13 08:59N 38°50' W 090°06'0 0.0
2018-Feb-13 08:30N 38°50' W 090°06'0 0.0
2018-Feb-13 07:58N 38°50' W 090°06'0 0.0
2018-Feb-13 07:27N 38°50' W 090°06'0 0.0
2018-Feb-13 07:00N 38°50' W 090°06'0 0.0
2018-Feb-13 06:30N 38°50' W 090°06'0 0.0
2018-Feb-13 05:59N 38°50' W 090°06'0 0.0
2018-Feb-13 05:30N 38°50' W 090°06'0 0.0
2018-Feb-13 05:00N 38°50' W 090°06'0 0.0
2018-Feb-13 04:21N 38°50' W 090°06'0 0.0
2018-Feb-13 03:59N 38°50' W 090°06'0 0.0
2018-Feb-13 03:29N 38°50' W 090°06'0 0.0
2018-Feb-13 03:00N 38°50' W 090°06'0 0.0
2018-Feb-13 02:29N 38°50' W 090°06'0 0.0
2018-Feb-13 02:00N 38°50' W 090°06'0 0.0
2018-Feb-13 01:29N 38°50' W 090°06'0 0.0
2018-Feb-13 01:00N 38°50' W 090°06'  

Dump ship's entire track history